aviador You're here:

CYOY Decoded Metar

VALCARTIER AIRPO in QC, CANADA
Report Time2017-08-21 23:00:00
UTC Time2017-08-21 23:54:50
Flight Rules vfr VFR
Wind240° at 09 kt
W.Rank240° ranks 3
Current wind is above 240° avg. (6.1)
Visibility9999 m
Phenomena:N/A
Clouds:Broken 053 Hf
Broken 130 Hf
Broken 240 Hf
Expected CloudBase > 2,400 ft AGL from Temp-Dew spread
Ceiling5,300 ft
Temp24°C (ISA +10)
Dew Point18°C (69% RH)
AAT23.5°C
QNH1013 hPa
Density Alt1,998 ft
Elevation551 ft
Report Wrong Elevation
Raw Report
CYOY 212300Z 24009KT 15SM BKN053 BKN130 BKN240 24/18 A2991 RMK
SC6AC1CI2 DA1983FT CB N MOVG SE LTNG DTCTRS REP STRIKES 30 NM
N SLP132=

Extra information for CYOY:More info

Metar Taf Metar & Taf Last 4 Metars F.Rules Stats Wind Profile Meteogram Temp Stats Airport Information Weather charts Add Link Nearby VenuesMetar ALERT Operation Metar Decoded Social comments